This is the latest recevied weather packets stored in our database for station/object N2WH. If no packets are shown the sender has not sent any weather packets the latest 1 day(s).
| Time | Temp. | Humidity | Pressure | Rain* | Wind** | Luminosity | Snow |
|---|---|---|---|---|---|---|---|
| 1778022514 | 24.44° C | 37% | 1009.4 hPa | 0 mm | 0.89 m/s, 196° | 20 W/m² | - |
| 1778022210 | 24.44° C | 37% | 1009.6 hPa | 0 mm | 0.45 m/s, 194° | 26 W/m² | - |
| 1778021907 | 25° C | 37% | 1009.6 hPa | 0 mm | 0.45 m/s, 201° | 28 W/m² | - |
| 1778021604 | 25° C | 36% | 1009.1 hPa | 0 mm | 0.89 m/s, 248° | 26 W/m² | - |
| 1778021299 | 25° C | 36% | 1009.1 hPa | 0 mm | 0.89 m/s, 206° | 30 W/m² | - |
| 1778020998 | 25.56° C | 35% | 1009.1 hPa | 0 mm | 0.45 m/s, 191° | 32 W/m² | - |
| 1778020694 | 25.56° C | 35% | 1009.1 hPa | 0 mm | 0.89 m/s, 130° | 32 W/m² | - |
| 1778020392 | 25.56° C | 36% | 1009.2 hPa | 0 mm | 0.45 m/s, 209° | 39 W/m² | - |
| 1778020087 | 25.56° C | 36% | 1008.9 hPa | 0 mm | 0.89 m/s, 114° | 41 W/m² | - |
| 1778019783 | 25.56° C | 35% | 1009.1 hPa | 0 mm | 0.45 m/s, 208° | 48 W/m² | - |
| 1778019481 | 26.11° C | 34% | 1009.2 hPa | 0 mm | 0.89 m/s, 223° | 49 W/m² | - |
| 1778019177 | 26.11° C | 34% | 1009 hPa | 0 mm | 0.45 m/s, 132° | 52 W/m² | - |
| 1778018874 | 26.11° C | 35% | 1009.1 hPa | 0 mm | 0.89 m/s, 188° | 73 W/m² | - |
| 1778018571 | 25.56° C | 34% | 1009.3 hPa | 0 mm | 0.89 m/s, 234° | 81 W/m² | - |
| 1778018269 | 25.56° C | 34% | 1008.9 hPa | 0 mm | 0.89 m/s, 195° | 66 W/m² | - |
| 1778017967 | 25.56° C | 35% | 1008.9 hPa | 0 mm | 0 m/s | 69 W/m² | - |
| 1778017665 | 26.11° C | 34% | 1008.7 hPa | 0 mm | 0.45 m/s, 141° | 76 W/m² | - |
| 1778017362 | 26.11° C | 34% | 1008.7 hPa | 0 mm | 0.89 m/s, 186° | 85 W/m² | - |
| 1778017059 | 26.11° C | 34% | 1008.9 hPa | 0 mm | 0.45 m/s, 117° | 88 W/m² | - |
| 1778016756 | 26.11° C | 32% | 1008.9 hPa | 0 mm | 0.89 m/s, 165° | 85 W/m² | - |
| 1778016452 | 26.11° C | 33% | 1008.7 hPa | 0 mm | 0.89 m/s, 244° | 98 W/m² | - |
| 1778016150 | 26.11° C | 33% | 1008.6 hPa | 0 mm | 1.34 m/s, 225° | 85 W/m² | - |
| 1778015846 | 26.11° C | 32% | 1008.5 hPa | 0 mm | 0.45 m/s, 181° | 83 W/m² | - |
| 1778015544 | 26.67° C | 31% | 1008.4 hPa | 0 mm | 1.79 m/s, 339° | 105 W/m² | - |
| 1778015240 | 26.11° C | 34% | 1008.4 hPa | 0 mm | 0.45 m/s, 174° | 66 W/m² | - |
* Rain latest hour (hover to see other rain measurements)
** Current wind speed in m/s (hover to see current wind gust speed)